Time;durP1;ratioP1;P1;durP2;ratioP2;P2;SDS_P1;SDS_P2;PMS_P1;PMS_P2;Temp;Humidity;BMP_temperature;BMP_pressure;BME280_temperature;BME280_humidity;BME280_pressure;Samples;Min_cycle;Max_cycle;Signal;HPM_P1;HPM_P2
2022/02/28 00:00:56;;;;;;;36.60;20.35;;;;;;;-0.10;66.55;98506.25;1777125;80;25800;-89
2022/02/28 00:03:23;;;;;;;41.23;23.15;;;;;;;-0.16;66.50;98506.73;1775030;80;25692;-89
2022/02/28 00:05:49;;;;;;;38.42;20.90;;;;;;;-0.19;66.53;98504.79;1780542;80;26326;-89
2022/02/28 00:08:16;;;;;;;40.60;21.35;;;;;;;-0.22;66.58;98510.33;1780391;80;27593;-90
2022/02/28 00:10:43;;;;;;;38.15;20.97;;;;;;;-0.24;66.65;98506.97;1779988;79;26599;-90
2022/02/28 00:13:12;;;;;;;54.83;23.60;;;;;;;-0.28;66.63;98501.04;1777768;80;25271;-91
2022/02/28 00:15:38;;;;;;;53.42;23.60;;;;;;;-0.32;66.75;98497.40;1778514;80;25827;-91
2022/02/28 00:18:05;;;;;;;44.50;23.30;;;;;;;-0.32;66.78;98504.88;1784817;80;25736;-91
2022/02/28 00:20:32;;;;;;;40.00;20.20;;;;;;;-0.29;66.76;98501.16;1812678;78;27460;-90
2022/02/28 00:22:59;;;;;;;41.60;23.00;;;;;;;-0.27;66.81;98497.91;1778328;79;25705;-91
2022/02/28 00:25:25;;;;;;;42.75;22.10;;;;;;;-0.22;66.85;98494.40;1778298;79;25803;-91
2022/02/28 00:27:53;;;;;;;37.90;21.35;;;;;;;-0.19;66.83;98494.17;1790832;78;26494;-90
2022/02/28 00:30:20;;;;;;;39.78;22.48;;;;;;;-0.15;66.85;98497.81;1777026;79;26386;-90
2022/02/28 00:32:47;;;;;;;38.67;21.73;;;;;;;-0.12;66.87;98495.41;1794370;79;28085;-90
2022/02/28 00:35:13;;;;;;;36.42;20.85;;;;;;;-0.11;66.86;98489.11;1786328;79;25278;-90
2022/02/28 00:37:40;;;;;;;41.40;22.93;;;;;;;-0.13;66.90;98495.05;1794501;78;25710;-91
2022/02/28 00:40:08;;;;;;;40.15;22.62;;;;;;;-0.26;66.93;98466.43;1794591;79;25817;-90
2022/02/28 00:42:35;;;;;;;36.98;22.07;;;;;;;-0.16;67.03;98485.98;1766154;80;25754;-90
2022/02/28 00:45:02;;;;;;;46.10;25.17;;;;;;;-0.17;67.06;98486.95;1794597;78;27466;-91
2022/02/28 00:47:29;;;;;;;52.43;26.50;;;;;;;-0.18;67.15;98483.92;1794032;78;25672;-90
2022/02/28 00:49:55;;;;;;;46.83;23.92;;;;;;;-0.18;67.18;98481.27;1794615;78;25848;-91
2022/02/28 00:52:22;;;;;;;47.25;25.08;;;;;;;-0.20;67.10;98489.83;1789493;78;25720;-90
2022/02/28 00:54:48;;;;;;;54.33;27.42;;;;;;;-0.21;67.12;98486.33;1794457;78;25845;-91
2022/02/28 00:57:15;;;;;;;48.00;25.80;;;;;;;-0.21;67.16;98486.81;1789435;79;27448;-92
2022/02/28 00:59:42;;;;;;;46.55;26.50;;;;;;;-0.20;67.27;98484.52;1793822;79;25925;-91
2022/02/28 01:02:09;;;;;;;49.45;26.73;;;;;;;-0.21;67.31;98482.83;1782251;79;25735;-91
2022/02/28 01:04:36;;;;;;;50.80;27.15;;;;;;;-0.36;67.13;98485.69;1793861;79;25759;-91
2022/02/28 01:07:05;;;;;;;52.53;28.32;;;;;;;-0.44;67.13;98479.28;1785513;79;25663;-91
2022/02/28 01:09:31;;;;;;;42.62;23.83;;;;;;;-0.45;67.29;98477.11;1795118;78;28166;-90
2022/02/28 01:11:59;;;;;;;47.35;26.23;;;;;;;-0.50;67.10;98466.02;1783949;79;25846;-92
2022/02/28 01:14:26;;;;;;;55.80;29.32;;;;;;;-0.52;67.13;98464.44;1793765;79;25726;-91
2022/02/28 01:16:53;;;;;;;49.85;26.48;;;;;;;-0.50;67.07;98462.52;1788908;79;25814;-92
2022/02/28 01:19:19;;;;;;;45.35;24.35;;;;;;;-0.54;66.95;98453.95;1794518;79;25737;-91
2022/02/28 01:21:46;;;;;;;40.65;23.77;;;;;;;-0.56;66.86;98461.17;1789128;79;27370;-91
2022/02/28 01:24:13;;;;;;;41.65;22.55;;;;;;;-0.53;66.87;98460.94;1785069;79;25799;-90
2022/02/28 01:26:40;;;;;;;39.10;22.15;;;;;;;-0.52;66.82;98459.98;1794081;78;26008;-90
2022/02/28 01:29:07;;;;;;;42.23;22.45;;;;;;;-0.55;66.64;98458.88;1791519;79;26308;-91
2022/02/28 01:31:34;;;;;;;42.38;23.47;;;;;;;-0.60;66.60;98457.05;1789259;79;25846;-90
2022/02/28 01:34:01;;;;;;;40.23;23.32;;;;;;;-0.67;66.56;98448.36;1749214;81;28357;-90
2022/02/28 01:36:27;;;;;;;41.15;23.27;;;;;;;-0.69;66.64;98445.81;1769345;81;25767;-90
2022/02/28 01:38:54;;;;;;;44.42;24.75;;;;;;;-0.68;66.68;98450.16;1769297;81;25291;-91
2022/02/28 01:41:21;;;;;;;40.03;23.62;;;;;;;-0.71;66.61;98447.73;1769351;81;25770;-90
2022/02/28 01:43:48;;;;;;;43.50;23.83;;;;;;;-0.75;66.71;98439.19;1769329;81;25249;-90
2022/02/28 01:46:14;;;;;;;42.17;24.02;;;;;;;-0.72;66.71;98447.88;1769413;81;27408;-91
2022/02/28 01:48:41;;;;;;;42.33;24.92;;;;;;;-0.76;66.49;98448.10;1769138;81;25817;-90
2022/02/28 01:51:07;;;;;;;44.35;25.97;;;;;;;-0.79;66.54;98448.80;1769157;81;25692;-90
2022/02/28 01:53:34;;;;;;;42.45;23.80;;;;;;;-0.82;66.48;98449.88;1769214;81;26276;-91
2022/02/28 01:56:01;;;;;;;45.92;23.95;;;;;;;-0.82;66.47;98444.56;1769207;81;25963;-90
2022/02/28 01:58:37;;;;;;;41.33;22.67;;;;;;;-0.82;66.38;98446.37;1769325;81;27517;-90
2022/02/28 02:01:06;;;;;;;42.62;23.65;;;;;;;-0.86;66.41;98444.45;1782707;79;26053;-91
2022/02/28 02:03:33;;;;;;;43.50;24.12;;;;;;;-0.86;66.46;98443.12;1783025;79;26270;-90
2022/02/28 02:06:00;;;;;;;41.48;24.02;;;;;;;-0.85;66.35;98436.02;1772260;80;25878;-91
2022/02/28 02:08:27;;;;;;;41.35;23.83;;;;;;;-0.85;66.39;98438.67;1772393;80;25676;-90
2022/02/28 02:10:53;;;;;;;39.25;22.75;;;;;;;-0.88;66.20;98431.80;1772310;80;27575;-91
2022/02/28 02:13:21;;;;;;;41.37;23.12;;;;;;;-0.92;66.11;98437.42;1772235;80;26263;-91
2022/02/28 02:15:48;;;;;;;42.00;23.55;;;;;;;-0.94;66.10;98428.26;1772402;80;25747;-90
2022/02/28 02:18:14;;;;;;;43.63;23.98;;;;;;;-1.00;66.04;98426.08;1772482;80;25773;-90
2022/02/28 02:20:41;;;;;;;38.20;22.45;;;;;;;-1.01;66.04;98422.22;1794618;79;25649;-90
2022/02/28 02:23:12;;;;;;;36.48;21.57;;;;;;;-1.04;66.01;98429.06;1794371;78;27570;-90
2022/02/28 02:25:39;;;;;;;39.53;21.00;;;;;;;-1.11;66.01;98431.34;1794412;79;25814;-90
2022/02/28 02:28:09;;;;;;;36.33;20.55;;;;;;;-1.12;66.02;98419.89;1785669;79;25707;-90
2022/02/28 02:30:36;;;;;;;34.60;21.20;;;;;;;-1.15;65.98;98417.46;1780336;80;25969;-90
2022/02/28 02:33:03;;;;;;;39.50;22.37;;;;;;;-1.22;65.94;98416.23;1780480;80;25773;-90
2022/02/28 02:35:31;;;;;;;40.95;22.48;;;;;;;-1.22;66.07;98418.89;1780544;80;27475;-90
2022/02/28 02:37:58;;;;;;;40.48;22.52;;;;;;;-1.18;66.09;98416.36;1780357;80;25835;-91
2022/02/28 02:40:24;;;;;;;46.48;25.62;;;;;;;-1.18;66.02;98416.36;1749550;82;25689;-90
2022/02/28 02:42:52;;;;;;;52.43;28.25;;;;;;;-1.17;65.99;98424.67;1749618;82;25838;-90
2022/02/28 02:45:18;;;;;;;45.55;23.67;;;;;;;-1.18;65.94;98424.30;1749606;82;25741;-91
2022/02/28 02:47:45;;;;;;;40.23;23.42;;;;;;;-1.18;65.99;98428.28;1749740;82;27286;-91
2022/02/28 02:50:12;;;;;;;45.95;24.43;;;;;;;-1.16;66.04;98422.87;1749148;82;25731;-91
2022/02/28 02:52:38;;;;;;;43.45;24.20;;;;;;;-1.16;66.01;98429.49;1749550;80;25219;-90
2022/02/28 02:55:06;;;;;;;40.05;21.70;;;;;;;-1.16;66.00;98426.84;1748693;82;26034;-91
2022/02/28 02:57:33;;;;;;;39.33;20.80;;;;;;;-1.16;65.97;98422.87;1748976;80;26239;-90
2022/02/28 03:00:07;;;;;;;38.65;22.15;;;;;;;-1.20;65.83;98422.72;1749220;81;28112;-90
2022/02/28 03:02:34;;;;;;;43.95;23.95;;;;;;;-1.21;65.84;98427.69;1747019;80;25866;-90
2022/02/28 03:05:01;;;;;;;39.90;22.15;;;;;;;-1.23;65.91;98427.80;1749230;81;25805;-90
2022/02/28 03:07:27;;;;;;;39.60;22.22;;;;;;;-1.24;65.93;98434.05;1749667;82;25811;-91
2022/02/28 03:09:54;;;;;;;39.92;22.37;;;;;;;-1.22;65.95;98428.16;1749653;81;25258;-91
2022/02/28 03:12:21;;;;;;;39.83;22.32;;;;;;;-1.27;65.84;98429.44;1749433;82;28644;-90
2022/02/28 03:14:47;;;;;;;43.70;23.05;;;;;;;-1.36;65.81;98428.80;1754070;80;25748;-91
2022/02/28 03:17:14;;;;;;;39.25;22.30;;;;;;;-1.36;65.94;98434.95;1760568;80;25823;-90
2022/02/28 03:19:41;;;;;;;38.25;21.73;;;;;;;-1.37;65.86;98435.05;1753034;81;26023;-90
2022/02/28 03:22:07;;;;;;;41.40;22.27;;;;;;;-1.39;65.88;98443.11;1752995;81;25214;-90
2022/02/28 03:24:34;;;;;;;40.55;21.75;;;;;;;-1.39;65.90;98440.45;1752968;81;28421;-90
2022/02/28 03:27:00;;;;;;;43.80;22.60;;;;;;;-1.36;65.97;98446.86;1752927;80;25660;-89
2022/02/28 03:29:27;;;;;;;39.55;21.02;;;;;;;-1.35;65.96;98446.39;1753016;80;25849;-89
2022/02/28 03:31:54;;;;;;;38.70;21.80;;;;;;;-1.39;65.89;98444.43;1753067;81;25803;-90
2022/02/28 03:34:20;;;;;;;34.98;20.82;;;;;;;-1.42;66.00;98449.94;1753030;81;25630;-90
2022/02/28 03:36:47;;;;;;;36.20;21.00;;;;;;;-1.42;66.08;98459.21;1753032;81;28148;-90
2022/02/28 03:39:14;;;;;;;38.35;22.17;;;;;;;-1.49;65.80;98445.58;1752806;80;25707;-90
2022/02/28 03:41:41;;;;;;;42.30;23.57;;;;;;;-1.59;65.96;98447.69;1753046;81;25728;-89
2022/02/28 03:44:07;;;;;;;37.90;23.22;;;;;;;-1.62;66.02;98451.88;1753105;81;26367;-91
2022/02/28 03:46:35;;;;;;;43.98;23.55;;;;;;;-1.61;66.23;98447.80;1753056;80;25719;-90
2022/02/28 03:49:01;;;;;;;35.05;20.40;;;;;;;-1.58;66.26;98447.58;1752995;81;28061;-90
2022/02/28 03:51:28;;;;;;;37.50;21.05;;;;;;;-1.54;66.24;98446.86;1752624;80;25919;-89
2022/02/28 03:53:54;;;;;;;41.23;22.07;;;;;;;-1.49;66.25;98446.06;1753064;81;25641;-89
2022/02/28 03:56:21;;;;;;;40.30;22.32;;;;;;;-1.50;66.10;98437.75;1753080;80;25803;-89
2022/02/28 03:58:48;;;;;;;38.83;21.85;;;;;;;-1.47;66.13;98429.11;1752978;81;25704;-89
2022/02/28 04:01:14;;;;;;;35.95;21.35;;;;;;;-1.43;66.06;98442.95;1753058;81;27342;-90
2022/02/28 04:03:41;;;;;;;40.12;22.05;;;;;;;-1.41;66.05;98443.69;1752886;81;25728;-90
2022/02/28 04:06:08;;;;;;;36.23;19.77;;;;;;;-1.43;65.94;98444.27;1752800;81;26263;-90
2022/02/28 04:08:35;;;;;;;32.55;19.45;;;;;;;-1.60;65.81;98430.11;1752688;81;26761;-90
2022/02/28 04:11:01;;;;;;;34.18;19.15;;;;;;;-1.73;66.04;98435.91;1752597;81;25855;-90
2022/02/28 04:13:28;;;;;;;34.53;19.25;;;;;;;-1.77;66.19;98435.27;1752879;81;27447;-90
2022/02/28 04:15:55;;;;;;;34.30;20.45;;;;;;;-1.76;66.17;98438.29;1753177;81;25994;-90
2022/02/28 04:18:21;;;;;;;35.68;20.05;;;;;;;-1.78;66.33;98430.94;1753170;81;26299;-90
2022/02/28 04:20:48;;;;;;;36.15;20.23;;;;;;;-1.74;66.31;98427.59;1753265;81;26601;-87
2022/02/28 04:23:15;;;;;;;35.43;20.30;;;;;;;-1.75;66.26;98429.40;1753007;81;25661;-89
2022/02/28 04:25:43;;;;;;;36.50;20.65;;;;;;;-1.72;66.28;98424.38;1753196;81;27506;-89
2022/02/28 04:28:09;;;;;;;33.83;19.00;;;;;;;-1.73;66.24;98436.76;1774616;80;25467;-90
2022/02/28 04:30:36;;;;;;;34.35;19.77;;;;;;;-1.69;66.31;98442.69;1774828;80;25639;-90
2022/02/28 04:33:03;;;;;;;32.67;20.48;;;;;;;-1.68;66.18;98437.73;1774722;80;25701;-90
2022/02/28 04:35:29;;;;;;;33.70;18.75;;;;;;;-1.71;66.18;98449.41;1774924;80;26199;-90
2022/02/28 04:37:56;;;;;;;31.50;18.70;;;;;;;-1.71;66.21;98461.80;1774799;80;28331;-89
2022/02/28 04:40:22;;;;;;;36.25;18.87;;;;;;;-1.67;66.30;98457.48;1774640;80;25754;-90
2022/02/28 04:42:49;;;;;;;32.55;18.92;;;;;;;-1.67;66.17;98457.95;1774563;80;25793;-89
2022/02/28 04:45:16;;;;;;;35.15;19.48;;;;;;;-1.64;66.24;98465.69;1774461;80;25844;-89
2022/02/28 04:47:42;;;;;;;35.70;20.02;;;;;;;-1.60;66.33;98463.20;1774906;80;25750;-90
2022/02/28 04:50:09;;;;;;;30.90;18.95;;;;;;;-1.59;66.34;98464.89;1774771;80;27591;-90
2022/02/28 04:52:36;;;;;;;33.92;20.32;;;;;;;-1.56;66.45;98454.06;1774403;80;25802;-89
2022/02/28 04:55:03;;;;;;;34.25;19.70;;;;;;;-1.59;66.30;98448.53;1774268;80;25843;-90
2022/02/28 04:57:39;;;;;;;42.58;21.48;;;;;;;-1.57;66.31;98441.80;1774060;80;26434;-89
2022/02/28 05:00:07;;;;;;;34.45;19.23;;;;;;;-1.56;66.36;98442.99;1774729;80;25740;-89
2022/02/28 05:02:34;;;;;;;33.67;19.30;;;;;;;-1.56;66.35;98450.94;1774689;80;26703;-89
2022/02/28 05:05:03;;;;;;;34.30;19.05;;;;;;;-1.59;66.34;98450.33;1774681;80;25743;-90
2022/02/28 05:07:30;;;;;;;32.88;18.67;;;;;;;-1.58;66.35;98450.23;1774977;80;25668;-90
2022/02/28 05:09:57;;;;;;;34.73;19.98;;;;;;;-1.56;66.30;98449.61;1774658;80;25851;-90
2022/02/28 05:12:24;;;;;;;34.60;20.75;;;;;;;-1.56;66.35;98460.20;1774753;80;25764;-89
2022/02/28 05:14:50;;;;;;;34.38;20.05;;;;;;;-1.57;66.40;98466.96;1774662;80;28243;-90
2022/02/28 05:17:17;;;;;;;37.40;21.33;;;;;;;-1.56;66.45;98461.52;1774647;80;25739;-89
2022/02/28 05:19:44;;;;;;;36.83;23.10;;;;;;;-1.54;66.49;98456.13;1774873;80;25670;-89
2022/02/28 05:22:11;;;;;;;38.10;21.37;;;;;;;-1.55;66.56;98458.41;1774749;80;26704;-89
2022/02/28 05:24:38;;;;;;;31.02;18.42;;;;;;;-1.60;66.54;98460.55;1774807;80;25310;-90
2022/02/28 05:27:09;;;;;;;34.33;19.75;;;;;;;-1.70;66.56;98462.17;1774667;80;27520;-89
2022/02/28 05:29:33;;;;;;;37.88;20.72;;;;;;;-1.74;66.67;98472.59;1773443;80;26130;-89
2022/02/28 05:31:59;;;;;;;35.73;20.68;;;;;;;-1.75;66.69;98473.55;1774711;80;25799;-90
2022/02/28 05:34:26;;;;;;;35.70;18.98;;;;;;;-1.77;66.73;98478.10;1774855;80;26315;-89
2022/02/28 05:36:53;;;;;;;31.90;18.92;;;;;;;-1.80;66.72;98475.19;1774353;80;25647;-89
2022/02/28 05:39:19;;;;;;;28.85;16.40;;;;;;;-1.87;66.74;98479.23;1774738;80;27506;-89
2022/02/28 05:41:46;;;;;;;28.30;17.07;;;;;;;-1.92;66.74;98474.25;1774602;80;25862;-89
2022/02/28 05:44:12;;;;;;;31.77;17.48;;;;;;;-1.94;66.95;98469.57;1774832;80;26351;-88
2022/02/28 05:46:39;;;;;;;34.25;18.37;;;;;;;-1.99;66.92;98476.97;1774618;80;26403;-89
2022/02/28 05:49:06;;;;;;;30.80;17.27;;;;;;;-1.98;66.96;98477.34;1774815;80;25700;-89
2022/02/28 05:51:32;;;;;;;29.23;17.65;;;;;;;-2.00;67.00;98485.02;1774735;80;27370;-89
2022/02/28 05:54:00;;;;;;;29.12;16.70;;;;;;;-2.01;67.03;98487.28;1774618;80;25717;-89
2022/02/28 05:56:29;;;;;;;30.80;17.40;;;;;;;-2.08;67.09;98486.88;1774656;80;25672;-90
2022/02/28 05:58:56;;;;;;;30.60;17.60;;;;;;;-2.12;67.18;98492.48;1774529;80;25699;-89
2022/02/28 06:01:23;;;;;;;31.12;17.55;;;;;;;-2.08;67.30;98493.50;1774744;80;25712;-89
2022/02/28 06:03:50;;;;;;;30.32;16.82;;;;;;;-2.03;67.44;98494.00;1774718;80;28044;-89
2022/02/28 06:06:16;;;;;;;29.55;17.27;;;;;;;-2.05;67.36;98503.84;1773985;80;25858;-89
2022/02/28 06:08:43;;;;;;;28.67;17.27;;;;;;;-2.04;67.43;98496.28;1774439;80;25700;-89
2022/02/28 06:11:10;;;;;;;30.72;17.50;;;;;;;-1.97;67.59;98503.33;1774451;80;26148;-89
2022/02/28 06:13:36;;;;;;;26.42;16.32;;;;;;;-1.98;67.46;98505.13;1774426;80;25676;-89
2022/02/28 06:16:03;;;;;;;29.05;15.60;;;;;;;-1.96;67.43;98504.55;1774587;80;27575;-89
2022/02/28 06:18:30;;;;;;;26.85;16.67;;;;;;;-1.95;67.42;98502.75;1774679;80;25892;-90
2022/02/28 06:20:57;;;;;;;31.68;17.80;;;;;;;-1.95;67.37;98502.75;1774646;80;25714;-90
2022/02/28 06:23:24;;;;;;;27.93;16.20;;;;;;;-1.92;67.50;98502.52;1774746;80;25898;-89
2022/02/28 06:25:50;;;;;;;32.78;17.77;;;;;;;-1.82;67.56;98504.91;1774648;80;25210;-89
2022/02/28 06:28:25;;;;;;;29.32;16.77;;;;;;;-1.76;67.41;98507.59;1774992;80;27395;-89
2022/02/28 06:30:51;;;;;;;23.32;13.35;;;;;;;-1.73;67.35;98514.00;1780036;79;26913;-90
2022/02/28 06:33:18;;;;;;;28.25;14.75;;;;;;;-1.76;67.18;98515.05;1779852;79;25711;-90
2022/02/28 06:35:48;;;;;;;26.33;14.18;;;;;;;-1.74;67.18;98517.59;1780097;79;26324;-89
2022/02/28 06:38:13;;;;;;;27.45;14.53;;;;;;;-1.83;67.05;98520.42;1779745;79;25834;-89
2022/02/28 06:40:40;;;;;;;24.50;13.95;;;;;;;-1.84;67.11;98524.87;1780218;80;28150;-89
2022/02/28 06:43:06;;;;;;;26.70;14.20;;;;;;;-1.84;67.10;98531.48;1780018;80;26093;-89
2022/02/28 06:45:33;;;;;;;22.17;13.95;;;;;;;-1.85;67.01;98528.47;1780115;79;25671;-90
2022/02/28 06:48:00;;;;;;;25.23;14.80;;;;;;;-1.82;67.13;98537.52;1780207;80;25836;-90
2022/02/28 06:50:26;;;;;;;23.98;13.72;;;;;;;-1.78;67.20;98537.28;1779987;80;25705;-90
2022/02/28 06:52:53;;;;;;;23.27;14.18;;;;;;;-1.75;67.12;98538.41;1780146;80;28408;-90
2022/02/28 06:55:19;;;;;;;26.27;14.10;;;;;;;-1.73;67.21;98533.85;1779702;80;25699;-90
2022/02/28 06:57:46;;;;;;;29.45;14.73;;;;;;;-1.71;67.21;98540.74;1779922;80;25985;-90
2022/02/28 07:00:13;;;;;;;25.95;14.60;;;;;;;-1.67;67.20;98546.64;1779802;80;26568;-90
2022/02/28 07:02:41;;;;;;;25.82;14.33;;;;;;;-1.65;67.18;98544.74;1750325;80;25818;-90
2022/02/28 07:05:08;;;;;;;24.75;14.75;;;;;;;-1.74;67.11;98548.04;1757690;81;27381;-91
2022/02/28 07:07:37;;;;;;;28.70;14.47;;;;;;;-1.71;67.22;98553.13;1757607;81;25661;-90
2022/02/28 07:10:05;;;;;;;26.73;14.60;;;;;;;-1.66;67.24;98558.45;1757694;81;25874;-90
2022/02/28 07:12:33;;;;;;;25.00;14.95;;;;;;;-1.76;67.08;98557.88;1757776;81;25763;-90
2022/02/28 07:15:01;;;;;;;25.45;14.93;;;;;;;-1.78;67.26;98561.95;1757813;81;25633;-90
2022/02/28 07:17:27;;;;;;;27.60;15.58;;;;;;;-1.74;67.26;98559.48;1757374;81;28058;-91
2022/02/28 07:19:54;;;;;;;30.80;15.93;;;;;;;-1.77;67.30;98561.00;1757711;81;25756;-91
2022/02/28 07:22:21;;;;;;;27.73;15.78;;;;;;;-1.69;67.31;98563.14;1759629;79;25269;-91
2022/02/28 07:24:47;;;;;;;23.42;15.45;;;;;;;-1.59;67.27;98560.22;1762592;81;25683;-90
2022/02/28 07:27:14;;;;;;;26.12;15.30;;;;;;;-1.52;67.15;98561.46;1762635;81;25868;-91
2022/02/28 07:29:40;;;;;;;29.65;15.80;;;;;;;-1.52;67.04;98562.78;1752232;81;28450;-92
2022/02/28 07:32:07;;;;;;;26.97;15.50;;;;;;;-1.47;66.97;98568.63;1743401;80;25753;-92
2022/02/28 07:34:34;;;;;;;28.50;16.10;;;;;;;-1.34;67.10;98565.48;1768892;79;25773;-91
2022/02/28 07:37:00;;;;;;;29.92;15.30;;;;;;;-1.20;67.08;98567.96;1727101;83;26188;-91
2022/02/28 07:39:28;;;;;;;19.87;12.25;;;;;;;-1.04;67.07;98562.41;1740194;81;25697;-90
2022/02/28 07:41:58;;;;;;;24.77;13.28;;;;;;;-0.97;66.71;98561.51;1746428;81;27563;-91
2022/02/28 07:44:23;;;;;;;22.17;13.78;;;;;;;-0.91;66.66;98562.38;1764209;79;25769;-91
2022/02/28 07:46:49;;;;;;;20.88;12.10;;;;;;;-0.79;66.51;98561.00;1770899;79;25726;-90
2022/02/28 07:49:16;;;;;;;19.80;11.65;;;;;;;-0.68;66.38;98569.48;1784314;79;26674;-90
2022/02/28 07:51:43;;;;;;;23.12;12.05;;;;;;;-0.59;66.18;98565.30;1762795;80;25733;-92
2022/02/28 07:54:10;;;;;;;20.62;12.30;;;;;;;-0.46;66.16;98566.92;1788726;79;27344;-93
2022/02/28 07:56:37;;;;;;;17.55;11.00;;;;;;;-0.31;65.95;98562.29;1758498;81;25808;-91
2022/02/28 07:59:03;;;;;;;19.45;10.95;;;;;;;-0.20;65.76;98567.63;1761546;81;25733;-91
2022/02/28 08:01:30;;;;;;;18.60;11.48;;;;;;;-0.09;65.49;98572.12;1759201;80;25784;-90
2022/02/28 08:03:57;;;;;;;19.05;11.35;;;;;;;-0.06;65.39;98570.56;1761103;80;25236;-91
2022/02/28 08:06:24;;;;;;;18.70;10.85;;;;;;;0.10;65.40;98569.77;1759203;81;27375;-90
2022/02/28 08:08:50;;;;;;;22.30;12.05;;;;;;;0.19;64.95;98567.73;1768561;79;25843;-90
2022/02/28 08:11:17;;;;;;;19.50;12.03;;;;;;;0.17;64.60;98568.33;1762052;80;25692;-91
2022/02/28 08:13:44;;;;;;;19.15;11.03;;;;;;;0.17;64.57;98569.66;1762046;80;25889;-91
2022/02/28 08:16:10;;;;;;;19.87;11.90;;;;;;;0.14;64.41;98571.20;1752105;81;25693;-90
2022/02/28 08:18:38;;;;;;;20.55;11.97;;;;;;;0.16;64.37;98570.61;1763008;79;27585;-90
2022/02/28 08:21:04;;;;;;;19.00;10.93;;;;;;;0.34;64.32;98578.50;1763499;79;25756;-90
2022/02/28 08:23:31;;;;;;;15.78;10.32;;;;;;;0.43;64.08;98582.73;1765648;80;25695;-91
2022/02/28 08:25:57;;;;;;;18.10;10.50;;;;;;;0.50;63.83;98574.14;1762630;80;26635;-89
2022/02/28 08:28:24;;;;;;;14.68;9.30;;;;;;;0.56;63.67;98580.80;1762512;80;25761;-90
2022/02/28 08:30:52;;;;;;;17.12;8.38;;;;;;;0.58;63.37;98578.88;1768798;78;27581;-91
2022/02/28 08:33:18;;;;;;;15.93;9.15;;;;;;;0.56;62.90;98590.11;1812670;78;25716;-89
2022/02/28 08:35:45;;;;;;;21.35;9.95;;;;;;;0.48;62.87;98592.52;1792106;79;25723;-90
2022/02/28 08:38:12;;;;;;;16.20;9.40;;;;;;;0.41;62.60;98591.29;1773656;80;25807;-90
2022/02/28 08:40:38;;;;;;;14.35;8.75;;;;;;;0.28;62.77;98593.56;1779638;80;25707;-90
2022/02/28 08:43:05;;;;;;;16.82;9.03;;;;;;;0.26;62.75;98596.81;1780535;79;27527;-89
2022/02/28 08:45:31;;;;;;;16.60;8.88;;;;;;;0.30;62.79;98592.97;1780712;79;25653;-90
2022/02/28 08:47:59;;;;;;;20.27;9.60;;;;;;;0.28;62.61;98601.53;1774991;80;25807;-89
2022/02/28 08:50:26;;;;;;;17.57;9.60;;;;;;;0.21;62.50;98611.43;1751065;80;25727;-90
2022/02/28 08:52:53;;;;;;;16.00;9.68;;;;;;;0.16;62.64;98609.11;1776354;80;25653;-89
2022/02/28 08:55:19;;;;;;;20.55;10.82;;;;;;;0.20;62.68;98605.27;1780679;80;27466;-89
2022/02/28 08:57:46;;;;;;;19.02;11.28;;;;;;;0.23;62.54;98610.36;1780491;80;25239;-89
2022/02/28 09:00:14;;;;;;;18.17;10.78;;;;;;;0.28;62.68;98610.83;1780447;79;25266;-88
2022/02/28 09:02:41;;;;;;;19.75;11.33;;;;;;;0.41;62.73;98612.06;1780383;80;25693;-90
2022/02/28 09:05:08;;;;;;;20.30;10.85;;;;;;;0.45;62.55;98615.34;1780175;79;25342;-89
2022/02/28 09:07:35;;;;;;;18.50;10.98;;;;;;;0.58;62.84;98606.78;1780211;80;28239;-88
2022/02/28 09:10:04;;;;;;;14.03;9.30;;;;;;;0.69;62.43;98600.98;1780058;79;26071;-89
2022/02/28 09:12:31;;;;;;;16.95;9.65;;;;;;;0.81;62.56;98608.47;1780512;79;25802;-89
2022/02/28 09:14:58;;;;;;;17.05;10.05;;;;;;;0.93;62.26;98609.31;1780452;79;26331;-88
2022/02/28 09:17:25;;;;;;;18.65;10.40;;;;;;;1.05;62.22;98614.50;1780644;80;25712;-88
2022/02/28 09:19:52;;;;;;;15.08;9.75;;;;;;;1.34;62.47;98599.32;1780452;80;27472;-88
2022/02/28 09:22:18;;;;;;;18.40;10.00;;;;;;;1.56;61.94;98609.93;1780333;79;25761;-88
2022/02/28 09:24:46;;;;;;;15.18;9.18;;;;;;;1.66;61.81;98602.88;1780480;80;25801;-88
2022/02/28 09:27:12;;;;;;;18.02;10.90;;;;;;;1.74;61.67;98620.38;1780477;80;25835;-88
2022/02/28 09:29:39;;;;;;;14.30;9.10;;;;;;;1.73;61.36;98627.16;1767049;80;26096;-88
2022/02/28 09:32:06;;;;;;;16.82;8.88;;;;;;;1.60;61.04;98620.66;1756711;80;28366;-88
2022/02/28 09:34:33;;;;;;;15.15;8.98;;;;;;;1.54;60.84;98633.64;1716491;83;25923;-89
2022/02/28 09:37:01;;;;;;;15.00;9.35;;;;;;;1.50;60.60;98628.20;1719396;82;26244;-88
2022/02/28 09:39:28;;;;;;;15.08;9.70;;;;;;;1.39;60.89;98631.25;1732797;80;25743;-88
2022/02/28 09:41:57;;;;;;;16.40;9.48;;;;;;;1.40;61.12;98637.41;1732678;80;25759;-88
2022/02/28 09:44:25;;;;;;;14.28;9.08;;;;;;;1.45;61.14;98624.08;1732496;81;28139;-88
2022/02/28 09:46:54;;;;;;;16.67;10.20;;;;;;;1.53;60.98;98630.61;1732287;81;25813;-87
2022/02/28 09:49:20;;;;;;;15.80;10.53;;;;;;;1.54;60.91;98635.81;1732356;81;25775;-88
2022/02/28 09:51:47;;;;;;;18.48;10.80;;;;;;;1.54;60.90;98634.48;1732675;81;26945;-88
2022/02/28 09:54:14;;;;;;;16.42;9.98;;;;;;;1.54;60.78;98634.48;1732683;80;25285;-88
2022/02/28 09:56:40;;;;;;;15.40;9.08;;;;;;;1.55;60.71;98641.50;1732645;82;28205;-88
2022/02/28 09:59:07;;;;;;;15.70;9.13;;;;;;;1.51;60.49;98642.71;1732501;81;26268;-88
2022/02/28 10:01:33;;;;;;;16.93;9.30;;;;;;;1.47;60.43;98648.39;1732666;81;25689;-88
2022/02/28 10:04:00;;;;;;;16.65;9.10;;;;;;;1.42;60.42;98650.11;1732588;80;25730;-87
2022/02/28 10:06:27;;;;;;;13.20;8.85;;;;;;;1.32;60.35;98648.69;1732419;81;25773;-88
2022/02/28 10:08:58;;;;;;;15.43;9.00;;;;;;;1.18;60.28;98642.30;1732531;82;28126;-88
2022/02/28 10:11:34;;;;;;;15.48;9.13;;;;;;;1.11;60.50;98645.06;1731979;81;25824;-87
2022/02/28 10:14:04;;;;;;;14.70;8.63;;;;;;;1.04;60.53;98639.40;1731963;82;25792;-87
2022/02/28 10:16:44;;;;;;;13.70;8.30;;;;;;;0.98;60.60;98645.67;1731937;82;27104;-87
2022/02/28 10:19:15;;;;;;;13.30;9.33;;;;;;;0.89;60.62;98643.27;1732755;82;25805;-88
2022/02/28 10:21:46;;;;;;;14.73;8.83;;;;;;;0.81;60.77;98648.34;1731597;81;27562;-86
2022/02/28 10:24:20;;;;;;;15.50;8.08;;;;;;;0.76;60.92;98647.00;1732164;82;25781;-86
2022/02/28 10:26:56;;;;;;;12.85;7.85;;;;;;;0.73;60.81;98646.75;1732529;82;25797;-87
2022/02/28 10:29:18;;;;;;;15.05;7.53;;;;;;;0.67;60.68;98649.90;1731207;81;26058;-86
2022/02/28 10:31:47;;;;;;;15.68;8.33;;;;;;;0.62;60.86;98642.27;1789286;79;25742;-87
2022/02/28 10:34:21;;;;;;;12.33;8.58;;;;;;;0.57;60.91;98640.95;1794399;78;28517;-87
2022/02/28 10:37:02;;;;;;;12.58;7.83;;;;;;;0.57;61.12;98643.61;1793128;79;25744;-87
2022/02/28 10:39:38;;;;;;;12.88;8.40;;;;;;;0.55;61.28;98647.71;1762958;80;25715;-85
2022/02/28 10:42:12;;;;;;;20.95;9.88;;;;;;;0.57;61.55;98647.59;1762878;81;25656;-86
2022/02/28 10:44:39;;;;;;;30.88;14.55;;;;;;;0.59;61.56;98647.00;1762882;81;25759;-87
2022/02/28 10:47:10;;;;;;;22.42;12.33;;;;;;;0.60;61.80;98650.02;1762928;80;27569;-86
2022/02/28 10:49:38;;;;;;;17.87;10.50;;;;;;;0.58;61.90;98653.28;1739384;82;25662;-86
2022/02/28 10:52:11;;;;;;;18.92;10.58;;;;;;;0.53;62.00;98651.45;1762923;81;25730;-86
2022/02/28 10:54:41;;;;;;;18.17;10.10;;;;;;;0.56;62.31;98651.22;1762900;81;26523;-86
2022/02/28 10:57:19;;;;;;;21.05;13.78;;;;;;;0.53;62.19;98654.10;1762955;80;25667;-86
2022/02/28 10:59:52;;;;;;;19.20;11.10;;;;;;;0.48;62.24;98657.13;1739347;82;27982;-86
2022/02/28 11:02:32;;;;;;;64.75;39.50;;;;;;;0.46;62.48;98667.50;1762832;80;25785;-86
2022/02/28 11:05:12;;;;;;;30.30;19.10;;;;;;;0.47;62.48;98659.42;1762886;81;25740;-87
2022/02/28 11:07:52;;;;;;;28.17;12.58;;;;;;;0.45;62.65;98665.33;1763072;80;25810;-86
2022/02/28 11:10:20;;;;;;;18.12;9.35;;;;;;;0.47;62.78;98667.87;1762869;80;25740;-86
2022/02/28 11:12:50;;;;;;;15.13;8.33;;;;;;;0.48;62.76;98666.43;1762897;81;27464;-86
2022/02/28 11:15:19;;;;;;;208.97;53.42;;;;;;;0.46;62.80;98664.84;1762907;80;25278;-87
2022/02/28 11:17:48;;;;;;;42.08;14.15;;;;;;;0.41;62.96;98669.17;1762775;80;25831;-86
2022/02/28 11:20:18;;;;;;;16.95;9.13;;;;;;;0.53;63.44;98663.40;1762974;80;26650;-85
2022/02/28 11:22:50;;;;;;;16.80;8.35;;;;;;;0.62;63.36;98670.66;1763203;80;25712;-86